createdAt,value
2019-04-03T00:02:18.427Z,25.27
2019-04-03T00:04:48.127Z,24.97
2019-04-03T00:07:18.191Z,23.53
2019-04-03T00:09:47.990Z,27.70
2019-04-03T00:12:17.738Z,24.83
2019-04-03T00:14:47.466Z,25.33
2019-04-03T00:17:17.359Z,25.80
2019-04-03T00:19:47.763Z,30.43
2019-04-03T00:22:17.969Z,21.63
2019-04-03T00:24:47.624Z,31.40
2019-04-03T00:27:17.329Z,23.60
2019-04-03T00:29:47.122Z,28.20
2019-04-03T00:32:16.825Z,25.83
2019-04-03T00:34:46.553Z,24.73
2019-04-03T00:37:16.165Z,24.97
2019-04-03T00:39:45.825Z,23.13
2019-04-03T00:42:15.469Z,27.03
2019-04-03T00:44:45.144Z,25.47
2019-04-03T00:47:14.853Z,24.23
2019-04-03T00:49:44.485Z,20.63
2019-04-03T00:52:14.260Z,20.57
2019-04-03T00:54:43.819Z,26.53
2019-04-03T00:57:13.830Z,21.10
2019-04-03T00:59:43.843Z,26.23
2019-04-03T01:02:16.238Z,24.07
2019-04-03T01:04:45.148Z,27.13
2019-04-03T01:07:14.911Z,19.47
2019-04-03T01:09:44.652Z,24.07
2019-04-03T01:12:14.557Z,25.40
2019-04-03T01:14:44.250Z,20.33
2019-04-03T01:17:14.166Z,27.67
2019-04-03T01:19:43.847Z,20.73
2019-04-03T01:22:13.655Z,29.63
2019-04-03T01:24:43.372Z,25.87
2019-04-03T01:27:13.015Z,23.27
2019-04-03T01:29:43.234Z,24.50
2019-04-03T01:32:15.505Z,20.90
2019-04-03T01:34:46.998Z,22.57
2019-04-03T01:37:16.817Z,23.50
2019-04-03T01:39:46.830Z,25.87
2019-04-03T01:42:16.475Z,29.00
2019-04-03T01:44:46.263Z,23.53
2019-04-03T01:47:15.914Z,21.47
2019-04-03T01:49:45.554Z,21.60
2019-04-03T01:52:15.258Z,23.00
2019-04-03T01:54:44.978Z,22.17
2019-04-03T01:57:14.751Z,19.53
2019-04-03T01:59:44.544Z,24.17
2019-04-03T02:02:14.212Z,29.43
2019-04-03T02:04:43.833Z,19.73
2019-04-03T02:07:14.833Z,22.80
2019-04-03T02:09:46.521Z,21.10
2019-04-03T02:12:17.771Z,21.43
2019-04-03T02:14:47.730Z,20.50
2019-04-03T02:17:17.411Z,23.30
2019-04-03T02:19:47.164Z,22.67
2019-04-03T02:22:17.147Z,19.97
2019-04-03T02:24:46.935Z,21.67
2019-04-03T02:27:16.748Z,23.00
2019-04-03T02:29:46.503Z,23.73
2019-04-03T02:32:16.513Z,25.07
2019-04-03T02:34:46.297Z,21.40
2019-04-03T02:37:16.975Z,25.53
2019-04-03T02:39:47.687Z,25.53
2019-04-03T02:42:17.700Z,23.30
2019-04-03T02:44:48.392Z,24.10
2019-04-03T02:47:18.642Z,23.70
2019-04-03T02:49:48.452Z,25.17
2019-04-03T02:52:18.834Z,20.93
2019-04-03T02:54:48.655Z,31.33
2019-04-03T02:57:18.536Z,19.60
2019-04-03T02:59:48.496Z,26.87
2019-04-03T03:02:18.290Z,27.40
2019-04-03T03:04:48.251Z,26.43
2019-04-03T03:07:18.123Z,27.70
2019-04-03T03:09:48.541Z,23.30
2019-04-03T03:12:19.157Z,22.50
2019-04-03T03:14:49.283Z,30.03
2019-04-03T03:17:22.484Z,23.30
2019-04-03T03:19:51.767Z,23.63
2019-04-03T03:22:22.776Z,23.33
2019-04-03T03:24:53.076Z,23.93
2019-04-03T03:27:22.883Z,21.60
2019-04-03T03:29:53.189Z,22.20
2019-04-03T03:32:31.045Z,26.40
2019-04-03T03:35:07.649Z,26.30
2019-04-03T03:37:27.120Z,21.67
2019-04-03T03:39:57.558Z,26.33
2019-04-03T03:42:30.955Z,29.70
2019-04-03T03:45:02.252Z,24.50
2019-04-03T03:47:35.118Z,21.40
2019-04-03T03:50:08.332Z,25.17
2019-04-03T03:52:39.258Z,25.13
2019-04-03T03:55:10.213Z,27.43
2019-04-03T03:57:41.315Z,30.90
2019-04-03T04:00:11.215Z,30.73
2019-04-03T04:02:44.524Z,27.13
2019-04-03T04:05:13.150Z,24.50
2019-04-03T04:07:43.173Z,24.23
2019-04-03T04:10:13.138Z,24.13
2019-04-03T04:12:45.052Z,28.10
2019-04-03T04:15:14.759Z,30.03
2019-04-03T04:17:48.977Z,26.23
2019-04-03T04:20:15.805Z,25.47
2019-04-03T04:22:49.075Z,28.20
2019-04-03T04:25:17.571Z,30.27
2019-04-03T04:27:47.320Z,29.53
2019-04-03T04:30:19.040Z,27.03
2019-04-03T04:32:49.145Z,27.57
2019-04-03T04:35:20.808Z,28.17
2019-04-03T04:37:50.200Z,24.50
2019-04-03T04:40:19.971Z,25.90
2019-04-03T04:42:49.674Z,23.10
2019-04-03T04:45:19.398Z,29.60
2019-04-03T04:47:49.266Z,30.80
2019-04-03T04:50:25.340Z,25.37
2019-04-03T04:52:54.832Z,27.90
2019-04-03T04:55:24.903Z,26.03
2019-04-03T04:57:55.386Z,32.00
2019-04-03T05:00:25.417Z,29.73
2019-04-03T05:02:55.598Z,29.67
2019-04-03T05:05:27.178Z,34.50
2019-04-03T05:07:56.575Z,27.60
2019-04-03T05:10:26.434Z,28.10
2019-04-03T05:12:56.063Z,28.90
2019-04-03T05:15:25.673Z,28.50
2019-04-03T05:17:55.814Z,26.00
2019-04-03T05:20:27.252Z,31.50
2019-04-03T05:22:57.420Z,34.23
2019-04-03T05:25:29.285Z,33.73
2019-04-03T05:27:59.059Z,27.67
2019-04-03T05:30:33.348Z,33.70
2019-04-03T05:33:03.269Z,28.47
2019-04-03T05:35:33.252Z,28.87
2019-04-03T05:38:03.299Z,37.00
2019-04-03T05:40:33.309Z,31.80
2019-04-03T05:43:03.166Z,30.97
2019-04-03T05:45:53.222Z,27.43
2019-04-03T05:48:23.225Z,27.70
2019-04-03T05:50:53.132Z,30.57
2019-04-03T05:53:22.944Z,31.13
2019-04-03T05:55:52.951Z,33.27
2019-04-03T05:58:22.998Z,31.23
2019-04-03T06:01:03.223Z,31.37
2019-04-03T06:03:37.548Z,34.60
2019-04-03T06:05:57.551Z,27.70
2019-04-03T06:08:27.111Z,32.30
2019-04-03T06:10:56.744Z,29.97
2019-04-03T06:13:26.803Z,34.37
2019-04-03T06:15:57.011Z,27.90
2019-04-03T06:18:26.985Z,32.40
2019-04-03T06:20:56.778Z,32.80
2019-04-03T06:23:26.466Z,37.37
2019-04-03T06:25:56.274Z,36.60
2019-04-03T06:28:26.051Z,32.87
2019-04-03T06:30:56.781Z,34.63
2019-04-03T06:33:26.705Z,38.47
2019-04-03T06:35:56.444Z,33.60
2019-04-03T06:38:26.131Z,35.90
2019-04-03T06:40:55.773Z,30.60
2019-04-03T06:43:25.465Z,32.40
2019-04-03T06:45:57.858Z,34.60
2019-04-03T06:48:26.688Z,31.70
2019-04-03T06:50:56.385Z,31.90
2019-04-03T06:53:28.483Z,31.67
2019-04-03T06:55:57.558Z,29.60
2019-04-03T06:58:37.321Z,34.83
2019-04-03T07:00:58.951Z,33.97
2019-04-03T07:03:28.683Z,36.80
2019-04-03T07:05:58.425Z,35.90
2019-04-03T07:08:34.424Z,31.63
2019-04-03T07:10:59.398Z,35.43
2019-04-03T07:13:30.059Z,33.50
2019-04-03T07:16:00.579Z,30.00
2019-04-03T07:18:30.493Z,35.37
2019-04-03T07:21:00.180Z,30.57
2019-04-03T07:23:30.260Z,32.97
2019-04-03T07:26:00.049Z,35.90
2019-04-03T07:28:30.632Z,34.00
2019-04-03T07:31:00.992Z,32.13
2019-04-03T07:33:30.825Z,32.30
2019-04-03T07:36:00.542Z,29.90
2019-04-03T07:38:30.274Z,36.10
2019-04-03T07:40:59.955Z,39.27
2019-04-03T07:43:29.576Z,32.57
2019-04-03T07:45:59.319Z,31.53
2019-04-03T07:48:28.952Z,29.70
2019-04-03T07:50:58.683Z,28.70
2019-04-03T07:53:28.640Z,31.17
2019-04-03T07:55:58.568Z,31.43
2019-04-03T07:58:30.666Z,34.30
2019-04-03T08:01:00.063Z,32.43
2019-04-03T08:03:30.287Z,30.80
2019-04-03T08:06:01.019Z,28.90
2019-04-03T08:08:31.774Z,28.10
2019-04-03T08:11:01.859Z,33.40
2019-04-03T08:13:32.327Z,35.30
2019-04-03T08:16:01.944Z,31.70
2019-04-03T08:18:31.756Z,29.20
2019-04-03T08:21:02.247Z,28.93
2019-04-03T08:23:32.199Z,27.40
2019-04-03T08:26:02.330Z,28.53
2019-04-03T08:28:32.119Z,30.00
2019-04-03T08:31:01.955Z,75.43
2019-04-03T08:33:33.066Z,94.33
2019-04-03T08:36:04.919Z,41.23
2019-04-03T08:38:34.920Z,36.70
2019-04-03T08:41:05.377Z,33.13
2019-04-03T08:43:35.549Z,34.00
2019-04-03T08:46:05.414Z,30.93
2019-04-03T08:48:35.237Z,27.37
2019-04-03T08:51:05.575Z,27.83
2019-04-03T08:53:42.751Z,25.73
2019-04-03T08:56:12.724Z,31.23
2019-04-03T08:58:43.100Z,25.63
2019-04-03T09:01:13.877Z,27.30
2019-04-03T09:03:45.339Z,29.17
2019-04-03T09:06:15.264Z,24.10
2019-04-03T09:08:45.101Z,27.37
2019-04-03T09:11:14.764Z,23.00
2019-04-03T09:13:44.548Z,23.33
2019-04-03T09:16:14.266Z,27.73
2019-04-03T09:18:46.727Z,24.10
2019-04-03T09:21:16.541Z,24.03
2019-04-03T09:23:46.617Z,24.60
2019-04-03T09:26:16.473Z,23.33
2019-04-03T09:28:46.222Z,22.93
2019-04-03T09:31:18.631Z,23.10
2019-04-03T09:33:47.451Z,22.80
2019-04-03T09:36:17.525Z,22.63
2019-04-03T09:38:47.244Z,26.77
2019-04-03T09:41:19.210Z,20.73
2019-04-03T09:43:48.569Z,25.30
2019-04-03T09:46:18.279Z,26.37
2019-04-03T09:48:48.037Z,22.40
2019-04-03T09:51:18.273Z,22.17
2019-04-03T09:53:49.250Z,22.53
2019-04-03T09:56:18.958Z,28.13
2019-04-03T09:58:48.665Z,24.10
2019-04-03T10:01:18.979Z,20.20
2019-04-03T10:03:49.270Z,17.60
2019-04-03T10:06:18.991Z,23.40
2019-04-03T10:08:48.789Z,19.10
2019-04-03T10:11:20.450Z,20.37
2019-04-03T10:13:50.129Z,18.10
2019-04-03T10:16:19.926Z,19.87
2019-04-03T10:18:49.556Z,22.97
2019-04-03T10:21:20.586Z,20.87
2019-04-03T10:23:50.590Z,19.30
2019-04-03T10:26:20.393Z,18.43
2019-04-03T10:28:50.551Z,17.70
2019-04-03T10:31:23.383Z,22.60
2019-04-03T10:33:51.901Z,22.53
2019-04-03T10:36:21.645Z,18.90
2019-04-03T10:38:51.739Z,21.63
2019-04-03T10:41:21.593Z,17.60
2019-04-03T10:43:51.327Z,20.10
2019-04-03T10:46:21.121Z,18.77
2019-04-03T10:48:50.931Z,14.53
2019-04-03T10:51:20.959Z,18.47
2019-04-03T10:53:51.529Z,17.20
2019-04-03T10:56:22.454Z,20.03
2019-04-03T10:58:52.272Z,19.77
2019-04-03T11:01:22.375Z,19.80
2019-04-03T11:03:52.188Z,17.37
2019-04-03T11:06:21.900Z,18.00
2019-04-03T11:08:52.096Z,15.90
2019-04-03T11:11:21.911Z,19.80
2019-04-03T11:13:51.934Z,18.03
2019-04-03T11:16:21.767Z,19.97
2019-04-03T11:18:58.537Z,17.67
2019-04-03T11:21:22.850Z,20.97
2019-04-03T11:23:52.837Z,17.07
2019-04-03T11:26:24.455Z,19.30
2019-04-03T11:28:54.527Z,16.70
2019-04-03T11:31:28.012Z,19.50
2019-04-03T11:33:55.710Z,27.07
2019-04-03T11:36:29.558Z,21.00
2019-04-03T11:39:10.742Z,15.70
2019-04-03T11:41:28.171Z,19.40
2019-04-03T11:43:57.972Z,17.43
2019-04-03T11:46:28.022Z,17.60
2019-04-03T11:48:57.883Z,19.00
2019-04-03T11:51:29.694Z,16.70
2019-04-03T11:53:59.232Z,18.50
2019-04-03T11:56:28.826Z,15.97
2019-04-03T11:58:58.562Z,15.70
2019-04-03T12:01:28.240Z,19.33
2019-04-03T12:03:58.391Z,15.27
2019-04-03T12:06:28.828Z,16.83
2019-04-03T12:09:00.885Z,16.73
2019-04-03T12:11:29.945Z,22.37
2019-04-03T12:13:59.649Z,19.33
2019-04-03T12:16:29.434Z,17.00
2019-04-03T12:18:59.153Z,16.77
2019-04-03T12:21:29.041Z,23.57
2019-04-03T12:23:58.940Z,16.23
2019-04-03T12:26:28.762Z,18.70
2019-04-03T12:28:58.460Z,20.10
2019-04-03T12:31:28.394Z,16.53
2019-04-03T12:34:03.324Z,17.53
2019-04-03T12:36:29.365Z,18.23
2019-04-03T12:38:59.042Z,19.30
2019-04-03T12:41:28.877Z,19.67
2019-04-03T12:43:58.700Z,20.33
2019-04-03T12:46:37.840Z,21.63
2019-04-03T12:49:09.038Z,21.00
2019-04-03T12:51:39.050Z,28.90
2019-04-03T12:54:08.877Z,22.40
2019-04-03T12:56:38.583Z,26.47
2019-04-03T12:59:09.494Z,19.30
2019-04-03T13:01:39.909Z,20.60
2019-04-03T13:04:09.831Z,20.80
2019-04-03T13:06:41.883Z,26.80
2019-04-03T13:09:11.959Z,24.03
2019-04-03T13:11:41.934Z,22.70
2019-04-03T13:14:22.761Z,16.70
2019-04-03T13:16:45.181Z,24.70
2019-04-03T13:19:16.011Z,29.63
2019-04-03T13:21:46.083Z,23.03
2019-04-03T13:24:17.453Z,20.30
2019-04-03T13:26:47.469Z,22.87
2019-04-03T13:29:17.497Z,22.97
2019-04-03T13:31:47.731Z,23.47
2019-04-03T13:34:17.618Z,19.23
2019-04-03T13:36:50.167Z,22.83
2019-04-03T13:39:18.849Z,24.33
2019-04-03T13:41:48.627Z,22.93
2019-04-03T13:44:18.755Z,24.03
2019-04-03T13:46:48.896Z,18.83
2019-04-03T13:49:19.617Z,19.10
2019-04-03T13:51:50.583Z,21.43
2019-04-03T13:54:20.594Z,20.30
2019-04-03T13:56:53.017Z,16.80
2019-04-03T13:59:24.438Z,27.67
2019-04-03T14:01:53.182Z,18.60
2019-04-03T14:04:23.559Z,20.27
2019-04-03T14:06:53.854Z,24.83
2019-04-03T14:09:23.974Z,19.80
2019-04-03T14:11:53.781Z,23.23
2019-04-03T14:14:23.483Z,23.33
2019-04-03T14:16:53.129Z,23.40
2019-04-03T14:19:24.995Z,24.80
2019-04-03T14:21:54.539Z,25.33
2019-04-03T14:24:37.634Z,25.20
2019-04-03T14:26:55.603Z,30.43
2019-04-03T14:29:25.291Z,26.20
2019-04-03T14:32:14.733Z,21.43
2019-04-03T14:34:44.365Z,22.83
2019-04-03T14:37:14.082Z,27.90
2019-04-03T14:39:44.082Z,22.03
2019-04-03T14:42:14.089Z,21.20
2019-04-03T14:44:45.638Z,22.53
2019-04-03T14:47:15.257Z,26.13
2019-04-03T14:49:44.937Z,23.67
2019-04-03T14:52:14.993Z,19.63
2019-04-03T14:54:46.308Z,21.23
2019-04-03T14:57:22.437Z,24.37
2019-04-03T14:59:47.825Z,19.97
2019-04-03T15:02:17.574Z,21.43
2019-04-03T15:04:47.748Z,20.07
2019-04-03T15:07:18.736Z,21.30
2019-04-03T15:09:48.634Z,22.07
2019-04-03T15:12:18.275Z,21.83
2019-04-03T15:14:48.212Z,24.07
2019-04-03T15:17:18.259Z,21.83
2019-04-03T15:19:48.383Z,22.40
2019-04-03T15:22:37.497Z,23.10
2019-04-03T15:25:07.780Z,22.27
2019-04-03T15:27:39.203Z,20.97
2019-04-03T15:30:11.227Z,22.60
2019-04-03T15:32:41.074Z,32.83
2019-04-03T15:35:11.382Z,21.40
2019-04-03T15:37:42.357Z,24.30
2019-04-03T15:40:14.134Z,20.73
2019-04-03T15:42:43.889Z,22.13
2019-04-03T15:45:14.540Z,26.17
2019-04-03T15:47:46.793Z,22.53
2019-04-03T15:50:16.794Z,22.40
2019-04-03T15:52:49.407Z,24.67
2019-04-03T15:55:17.954Z,21.30
2019-04-03T15:57:47.871Z,24.77
2019-04-03T16:00:19.245Z,22.27
2019-04-03T16:02:49.569Z,22.53
2019-04-03T16:05:21.032Z,23.40
2019-04-03T16:07:51.583Z,19.17
2019-04-03T16:10:22.692Z,18.07
2019-04-03T16:12:53.167Z,20.27
2019-04-03T16:15:24.138Z,22.37
2019-04-03T16:17:54.460Z,26.73
2019-04-03T16:20:24.264Z,22.60
2019-04-03T16:22:54.819Z,25.20
2019-04-03T16:25:24.627Z,22.00
2019-04-03T16:27:54.608Z,18.40
2019-04-03T16:30:44.997Z,24.13
2019-04-03T16:33:22.271Z,22.40
2019-04-03T16:35:46.654Z,24.10
2019-04-03T16:38:16.353Z,19.53
2019-04-03T16:40:46.979Z,24.67
2019-04-03T16:43:17.281Z,25.13
2019-04-03T16:45:47.692Z,21.10
2019-04-03T16:48:18.201Z,19.07
2019-04-03T16:50:48.686Z,18.30
2019-04-03T16:53:20.526Z,24.43
2019-04-03T16:55:49.703Z,21.27
2019-04-03T16:58:19.390Z,24.80
2019-04-03T17:00:49.509Z,20.07
2019-04-03T17:03:19.321Z,23.40
2019-04-03T17:05:49.459Z,19.40
2019-04-03T17:08:19.463Z,24.27
2019-04-03T17:10:49.563Z,21.80
2019-04-03T17:13:21.378Z,23.83
2019-04-03T17:15:51.342Z,22.53
2019-04-03T17:18:21.018Z,20.60
2019-04-03T17:20:51.216Z,20.63
2019-04-03T17:23:21.113Z,23.97
2019-04-03T17:25:51.705Z,22.13
2019-04-03T17:28:21.994Z,22.70
2019-04-03T17:30:52.451Z,23.40
2019-04-03T17:33:22.305Z,25.93
2019-04-03T17:35:52.212Z,22.37
2019-04-03T17:38:22.006Z,27.77
2019-04-03T17:40:51.643Z,26.97
2019-04-03T17:43:21.731Z,19.20
2019-04-03T17:45:51.418Z,21.97
2019-04-03T17:48:24.502Z,21.57
2019-04-03T17:50:52.911Z,22.13
2019-04-03T17:53:22.660Z,20.80
2019-04-03T17:55:52.264Z,18.27
2019-04-03T17:58:22.079Z,22.17
2019-04-03T18:00:52.565Z,25.10
2019-04-03T18:03:22.501Z,25.80
2019-04-03T18:05:52.306Z,21.43
2019-04-03T18:08:22.136Z,23.53
2019-04-03T18:10:52.375Z,22.87
2019-04-03T18:13:23.384Z,21.70
2019-04-03T18:15:53.859Z,23.20
2019-04-03T18:18:23.723Z,23.90
2019-04-03T18:20:53.839Z,26.87
2019-04-03T18:23:23.642Z,26.33
2019-04-03T18:25:53.378Z,25.43
2019-04-03T18:28:23.468Z,24.90
2019-04-03T18:30:53.261Z,21.40
2019-04-03T18:33:23.020Z,22.83
2019-04-03T18:35:52.844Z,21.80
2019-04-03T18:38:22.567Z,22.10
2019-04-03T18:40:52.256Z,22.33
2019-04-03T18:43:22.446Z,27.67
2019-04-03T18:45:53.829Z,23.50
2019-04-03T18:48:23.804Z,20.93
2019-04-03T18:50:53.488Z,22.97
2019-04-03T18:53:23.220Z,27.90
2019-04-03T18:55:52.928Z,18.60
2019-04-03T18:58:23.924Z,22.67
2019-04-03T19:00:54.101Z,18.00
2019-04-03T19:03:24.566Z,25.23
2019-04-03T19:05:54.235Z,23.93
2019-04-03T19:08:24.324Z,23.93
2019-04-03T19:11:01.884Z,21.60
2019-04-03T19:13:25.523Z,19.00
2019-04-03T19:15:55.268Z,29.17
2019-04-03T19:18:24.903Z,20.97
2019-04-03T19:20:54.776Z,24.17
2019-04-03T19:23:24.631Z,23.70
2019-04-03T19:25:54.447Z,23.70
2019-04-03T19:28:24.117Z,25.30
2019-04-03T19:30:53.784Z,23.00
2019-04-03T19:33:23.481Z,24.73
2019-04-03T19:35:53.195Z,28.20
2019-04-03T19:38:22.996Z,24.27
2019-04-03T19:40:52.729Z,27.93
2019-04-03T19:43:22.434Z,28.80
2019-04-03T19:45:52.430Z,26.87
2019-04-03T19:48:23.853Z,24.03
2019-04-03T19:50:53.902Z,25.10
2019-04-03T19:53:23.607Z,24.80
2019-04-03T19:55:54.749Z,26.80
2019-04-03T19:58:24.768Z,25.50
2019-04-03T20:00:54.667Z,27.33
2019-04-03T20:03:24.866Z,21.60
2019-04-03T20:05:55.212Z,29.50
2019-04-03T20:08:25.294Z,27.90
2019-04-03T20:10:56.572Z,22.80
2019-04-03T20:13:28.129Z,26.80
2019-04-03T20:15:57.774Z,24.60
2019-04-03T20:18:27.387Z,27.07
2019-04-03T20:20:57.254Z,29.13
2019-04-03T20:23:29.948Z,28.67
2019-04-03T20:26:04.528Z,26.90
2019-04-03T20:28:35.635Z,30.00
2019-04-03T20:31:07.955Z,29.07
2019-04-03T20:33:38.157Z,30.80
2019-04-03T20:36:07.887Z,30.63
2019-04-03T20:38:38.718Z,28.33
2019-04-03T20:41:29.124Z,30.20
2019-04-03T20:43:59.679Z,28.23
2019-04-03T20:46:30.721Z,30.53
2019-04-03T20:49:03.031Z,26.43
2019-04-03T20:51:33.304Z,28.67
2019-04-03T20:54:03.129Z,28.03
2019-04-03T20:56:34.303Z,28.63
2019-04-03T20:59:04.631Z,30.17
2019-04-03T21:01:53.851Z,30.90
2019-04-03T21:04:23.499Z,26.23
2019-04-03T21:06:53.119Z,28.10
2019-04-03T21:09:22.805Z,28.90
2019-04-03T21:11:52.709Z,31.13
2019-04-03T21:14:22.407Z,30.93
2019-04-03T21:16:52.150Z,36.80
2019-04-03T21:19:22.042Z,35.00
2019-04-03T21:21:51.662Z,37.67
2019-04-03T21:24:21.337Z,27.80
2019-04-03T21:26:50.955Z,27.67
2019-04-03T21:29:20.644Z,32.90
2019-04-03T21:31:50.707Z,30.03
2019-04-03T21:34:20.415Z,30.07
2019-04-03T21:36:50.440Z,30.83
2019-04-03T21:39:20.189Z,30.30
2019-04-03T21:41:49.907Z,33.57
2019-04-03T21:44:19.558Z,27.10
2019-04-03T21:46:49.586Z,31.23
2019-04-03T21:49:19.206Z,31.00
2019-04-03T21:51:49.969Z,29.17
2019-04-03T21:54:20.868Z,36.57
2019-04-03T21:56:50.607Z,30.27
2019-04-03T21:59:20.289Z,27.90
2019-04-03T22:01:50.442Z,30.60
2019-04-03T22:04:22.932Z,31.67
2019-04-03T22:06:52.840Z,35.47
2019-04-03T22:09:22.624Z,28.90
2019-04-03T22:11:52.284Z,31.10
2019-04-03T22:14:22.233Z,26.50
2019-04-03T22:16:52.256Z,32.90
2019-04-03T22:19:22.014Z,29.83
2019-04-03T22:21:51.843Z,27.43
2019-04-03T22:24:21.582Z,32.00
2019-04-03T22:26:51.163Z,30.97
2019-04-03T22:29:20.886Z,26.27
2019-04-03T22:31:53.760Z,26.77
2019-04-03T22:34:21.932Z,28.17
2019-04-03T22:36:51.757Z,28.63
2019-04-03T22:39:21.413Z,28.50
2019-04-03T22:41:51.269Z,31.03
2019-04-03T22:44:20.917Z,27.40
2019-04-03T22:46:52.029Z,23.73
2019-04-03T22:49:22.071Z,29.33
2019-04-03T22:51:52.073Z,28.70
2019-04-03T22:54:21.730Z,32.33
2019-04-03T22:56:51.442Z,27.50
2019-04-03T22:59:23.633Z,26.60
2019-04-03T23:01:52.439Z,27.57
2019-04-03T23:04:22.164Z,27.70
2019-04-03T23:06:52.070Z,26.70
2019-04-03T23:09:41.136Z,29.53
2019-04-03T23:12:10.904Z,31.07
2019-04-03T23:14:40.697Z,29.90
2019-04-03T23:17:11.978Z,29.63
2019-04-03T23:19:42.026Z,29.53
2019-04-03T23:22:12.038Z,28.60
2019-04-03T23:24:41.856Z,29.20
2019-04-03T23:27:11.714Z,25.13
2019-04-03T23:29:41.434Z,25.40
2019-04-03T23:32:11.603Z,31.20
2019-04-03T23:34:41.296Z,30.17
2019-04-03T23:37:11.102Z,26.00
2019-04-03T23:39:40.872Z,23.83
2019-04-03T23:42:29.952Z,28.13
2019-04-03T23:45:00.135Z,29.00
2019-04-03T23:47:29.949Z,26.40
2019-04-03T23:49:59.945Z,26.17
2019-04-03T23:52:30.484Z,26.00
2019-04-03T23:55:05.236Z,25.70
2019-04-03T23:57:36.067Z,29.53
